Pinedale, New Mexico
Current Conditions -  °F | °C
As of 2:53 PM on Sunday 25 Jan 2015 (Local Time) from KGUP Reporting Station
Clear Clear  
Wind Chill: 53°   Ceiling: Unl
Heat Index: 53°   Visibility: 10mi
Dew Point: 22°   Wind: 3mph
Humidity: 30%   Direction: 270°W
Pressure: 30.28"   Gusts: NA
Location:  35.4315°N, 108.724°W
Report Text: KGUP 252153Z AUTO 27003KT 10SM CLR 12/M06 A3028 RMK AO2 SLP240 T01171056
Loading
Personal Weather Stations






























Interactive Weather Map New forecast layout! Learn more

10-Day Weather Forecast

Advertisements
Track Severe Weather on mobile